首页
METAR-TAF:

METAR-TAF

机场 :

尼斯蓝色海岸机场

尼斯, 法国

纬度: 43-39N, 经度: 007-12E, 海拔: 4米

当前天气观测

该预报发布于29分钟前的03:00 UTC
风速11节,风向北转西北
温度 8°C
湿度 66%
气压 1005 hPa
能见度10公里或以上
散云层高于4000英尺
多云层高于23000英尺

METAR: LFMN 140300Z 33011KT 9999 SCT040 BKN230 08/02 Q1005 NOSIG

时间: 04:29 (03:29 UTC)

预报

该预报发布于1小时和29分钟前的02:00 UTC
预报有效从14日的 03点(UTC)到 15日的 09点(UTC)
风速10节,风向北转西北
能见度10公里或以上
1500米以下无云,无积雨云
短暂存在
从 14日的 05点(UTC)到 14日的 08点(UTC)
多云层高于3000英尺
成为
从 14日的 08点(UTC)到 14日的 10点(UTC)
风速15节,风向
多云层高于4000英尺
成为
从 14日的 11点(UTC)到 14日的 13点(UTC)
短暂存在
从 14日的 13点(UTC)到 14日的 22点(UTC)
风速25节,风向,有时为35节阵风
能見度: 4000
散云层高于1000英尺
散云层高于2000英尺, 积雨云.
多云层高于2500英尺
雷暴, 雨
几率 40% :
短暂存在
从 14日的 15点(UTC)到 14日的 20点(UTC)
风速30节,风向多变,有时为40节阵风
能見度: 2000
多云层高于1200英尺, 积雨云.
雷暴, 大雨
成为
从 14日的 22点(UTC)到 14日的 24点(UTC)
风速15节,风向北转西北
成为
从 15日的 07点(UTC)到 15日的 09点(UTC)
风速5节,风向多变

TAF: LFMN 140200Z 1403/1509 34010KT CAVOK TEMPO 1405/1408 BKN030 BECMG 1408/1410 09015KT BKN040 BECMG 1411/1413 RA TEMPO 1413/1422 09025G35KT 4000 TSRA SCT010 SCT020CB BKN025 PROB40 TEMPO 1415/1420 VRB30G40KT 2000 +TSRA BKN012CB BECMG 1422/1424 34015KT NSW BECMG 1507/1509 VRB05KT

超过4000个机场的气象观测和天气预报(METAR&TAF报告)。

可查询的气象台以黄色和红色小点在地图上表示。

将鼠标移到小点上方,可查看气象台名称。

然后点击查看天气观测和预报。

如需切换地图:点击带黑十字的绿色按钮放大地图;点击带横线的绿色按钮缩小地图;或者点击绿色箭头查看邻近地区的地图。


METAR-TAF: